Time;durP1;ratioP1;P1;durP2;ratioP2;P2;SDS_P1;SDS_P2;PMS_P1;PMS_P2;Temp;Humidity;BMP_temperature;BMP_pressure;BME280_temperature;BME280_humidity;BME280_pressure;Samples;Min_cycle;Max_cycle;Signal;HPM_P1;HPM_P2
2021/08/03 00:01:23;;;;;;;;;;;11.60;99.90;;;;;;5059383;28;20007;-67
2021/08/03 00:03:52;;;;;;;;;;;11.60;99.90;;;;;;5093971;28;19916;-67
2021/08/03 00:06:19;;;;;;;;;;;11.50;99.90;;;;;;5094285;28;19923;-67
2021/08/03 00:08:46;;;;;;;;;;;11.50;99.90;;;;;;5075872;28;19915;-67
2021/08/03 00:11:12;;;;;;;;;;;11.50;99.90;;;;;;5093885;28;19908;-67
2021/08/03 00:13:38;;;;;;;;;;;11.50;99.90;;;;;;5059138;28;20006;-67
2021/08/03 00:16:08;;;;;;;;;;;11.50;99.90;;;;;;5094426;28;19908;-67
2021/08/03 00:18:34;;;;;;;;;;;11.50;99.90;;;;;;5094160;28;19908;-67
2021/08/03 00:20:59;;;;;;;;;;;11.50;99.90;;;;;;5076216;28;19919;-67
2021/08/03 00:23:25;;;;;;;;;;;11.50;99.90;;;;;;5094180;28;19916;-67
2021/08/03 00:25:51;;;;;;;;;;;11.40;99.90;;;;;;5076649;28;19912;-67
2021/08/03 00:28:17;;;;;;;;;;;11.40;99.90;;;;;;5097892;28;19908;-67
2021/08/03 00:30:42;;;;;;;;;;;11.30;99.90;;;;;;5079646;28;20323;-67
2021/08/03 00:33:08;;;;;;;;;;;11.30;99.90;;;;;;5062957;28;19908;-67
2021/08/03 00:35:34;;;;;;;;;;;11.30;99.90;;;;;;5079974;28;20353;-67
2021/08/03 00:38:00;;;;;;;;;;;11.30;99.90;;;;;;5079966;28;19958;-67
2021/08/03 00:40:27;;;;;;;;;;;11.30;99.90;;;;;;5080093;28;19931;-66
2021/08/03 00:42:53;;;;;;;;;;;11.30;99.90;;;;;;5062854;28;19909;-67
2021/08/03 00:45:18;;;;;;;;;;;11.30;99.90;;;;;;5097554;28;19916;-67
2021/08/03 00:47:44;;;;;;;;;;;11.30;99.90;;;;;;5097834;28;19999;-66
2021/08/03 00:50:09;;;;;;;;;;;11.20;99.90;;;;;;5079910;28;19919;-66
2021/08/03 00:52:35;;;;;;;;;;;11.10;99.90;;;;;;5079268;28;20047;-67
2021/08/03 00:55:01;;;;;;;;;;;11.00;99.90;;;;;;5097677;28;19916;-67
2021/08/03 00:57:26;;;;;;;;;;;11.00;99.90;;;;;;5062448;28;19956;-66
2021/08/03 00:59:52;;;;;;;;;;;11.00;99.90;;;;;;5097909;28;19986;-67
2021/08/03 01:02:17;;;;;;;;;;;11.00;99.90;;;;;;5097273;28;20380;-66
2021/08/03 01:04:43;;;;;;;;;;;11.00;99.90;;;;;;5079007;28;19920;-68
2021/08/03 01:07:14;;;;;;;;;;;10.90;99.90;;;;;;5097490;28;20453;-67
2021/08/03 01:12:40;;;;;;;;;;;10.90;99.90;;;;;;5112470;27;19912;-66
2021/08/03 01:15:09;;;;;;;;;;;10.90;99.90;;;;;;5093939;28;20381;-65
2021/08/03 01:17:41;;;;;;;;;;;10.90;99.90;;;;;;5112426;28;19908;-67
2021/08/03 01:20:27;;;;;;;;;;;10.90;99.90;;;;;;5093822;28;19950;-66
2021/08/03 01:22:59;;;;;;;;;;;10.80;99.90;;;;;;5096953;28;19915;-68
2021/08/03 01:25:45;;;;;;;;;;;10.80;99.90;;;;;;5076712;28;19947;-68
2021/08/03 01:28:14;;;;;;;;;;;10.80;99.90;;;;;;5111377;28;20353;-67
2021/08/03 01:30:43;;;;;;;;;;;10.80;99.90;;;;;;5093253;28;19964;-68
2021/08/03 01:33:09;;;;;;;;;;;10.80;99.90;;;;;;5111539;28;19930;-68
2021/08/03 01:35:35;;;;;;;;;;;10.70;99.90;;;;;;5111744;28;20342;-66
2021/08/03 01:38:01;;;;;;;;;;;10.70;99.90;;;;;;5093404;28;19908;-68
2021/08/03 01:40:28;;;;;;;;;;;10.70;99.90;;;;;;5111316;28;19908;-66
2021/08/03 01:42:53;;;;;;;;;;;10.70;99.90;;;;;;5111278;28;19908;-66
2021/08/03 01:45:19;;;;;;;;;;;10.60;99.90;;;;;;5111522;28;19908;-66
2021/08/03 01:47:45;;;;;;;;;;;10.60;99.90;;;;;;5111478;28;19938;-68
2021/08/03 01:50:11;;;;;;;;;;;10.60;99.90;;;;;;5111681;28;19947;-66
2021/08/03 01:52:37;;;;;;;;;;;10.60;99.90;;;;;;5092831;28;19915;-68
2021/08/03 01:55:03;;;;;;;;;;;10.60;99.90;;;;;;5093441;28;19914;-66
2021/08/03 01:57:29;;;;;;;;;;;10.60;99.90;;;;;;5111555;28;19915;-68
2021/08/03 01:59:56;;;;;;;;;;;10.50;99.90;;;;;;5093120;28;19912;-68
2021/08/03 02:02:23;;;;;;;;;;;10.50;99.90;;;;;;5111189;28;19912;-68
2021/08/03 02:04:49;;;;;;;;;;;10.50;99.90;;;;;;5111153;28;19951;-67
2021/08/03 02:07:15;;;;;;;;;;;10.60;99.90;;;;;;5111130;28;20003;-68
2021/08/03 02:09:42;;;;;;;;;;;10.50;99.90;;;;;;5111032;28;19951;-67
2021/08/03 02:12:07;;;;;;;;;;;10.40;99.90;;;;;;5110507;28;20395;-67
2021/08/03 02:14:33;;;;;;;;;;;10.40;99.90;;;;;;5110673;28;19958;-67
2021/08/03 02:16:58;;;;;;;;;;;10.40;99.90;;;;;;5092409;28;20283;-67
2021/08/03 02:19:24;;;;;;;;;;;10.40;99.90;;;;;;5111160;28;19923;-67
2021/08/03 02:21:49;;;;;;;;;;;10.40;99.90;;;;;;5091641;28;19955;-67
2021/08/03 02:24:15;;;;;;;;;;;10.40;99.90;;;;;;5096894;28;19926;-69
2021/08/03 02:26:40;;;;;;;;;;;10.40;99.90;;;;;;5097200;28;19912;-67
2021/08/03 02:29:06;;;;;;;;;;;10.30;99.90;;;;;;5078590;28;19916;-67
2021/08/03 02:31:38;;;;;;;;;;;10.30;99.90;;;;;;5078705;28;19955;-68
2021/08/03 02:34:07;;;;;;;;;;;10.30;99.90;;;;;;5078623;28;19955;-68
2021/08/03 02:36:39;;;;;;;;;;;10.30;99.90;;;;;;5062129;28;19934;-68
2021/08/03 02:39:05;;;;;;;;;;;10.30;99.90;;;;;;5096681;28;19944;-67
2021/08/03 02:41:31;;;;;;;;;;;10.30;99.90;;;;;;5097117;28;19908;-71
2021/08/03 02:43:58;;;;;;;;;;;10.30;99.90;;;;;;5078371;28;19908;-67
2021/08/03 02:46:25;;;;;;;;;;;10.30;99.90;;;;;;5078353;28;19908;-67
2021/08/03 02:51:38;;;;;;;;;;;10.20;99.90;;;;;;5096124;28;19961;-68
2021/08/03 02:54:10;;;;;;;;;;;10.20;99.90;;;;;;5078821;28;19908;-67
2021/08/03 02:56:36;;;;;;;;;;;10.20;99.90;;;;;;5096304;28;19916;-67
2021/08/03 02:59:05;;;;;;;;;;;10.20;99.90;;;;;;5096239;28;19908;-68
2021/08/03 03:01:31;;;;;;;;;;;10.20;99.90;;;;;;5096439;28;19915;-66
2021/08/03 03:04:00;;;;;;;;;;;10.20;99.90;;;;;;5061309;28;19909;-65
2021/08/03 03:06:26;;;;;;;;;;;10.20;99.90;;;;;;5077945;28;19912;-66
2021/08/03 03:08:53;;;;;;;;;;;10.20;99.90;;;;;;5096037;28;19915;-66
2021/08/03 03:11:18;;;;;;;;;;;10.10;99.90;;;;;;5095747;28;19927;-66
2021/08/03 03:13:50;;;;;;;;;;;10.10;99.90;;;;;;5096288;28;19912;-66
2021/08/03 03:16:16;;;;;;;;;;;10.10;99.90;;;;;;5078182;28;19912;-66
2021/08/03 03:18:43;;;;;;;;;;;10.10;99.90;;;;;;5096170;28;19908;-66
2021/08/03 03:21:09;;;;;;;;;;;10.10;99.90;;;;;;5096141;28;19994;-66
2021/08/03 03:23:35;;;;;;;;;;;10.10;99.90;;;;;;5095873;28;19950;-66
2021/08/03 03:26:05;;;;;;;;;;;10.10;99.90;;;;;;5096062;28;19996;-66
2021/08/03 03:28:32;;;;;;;;;;;10.10;99.90;;;;;;5078048;28;19909;-66
2021/08/03 03:30:58;;;;;;;;;;;10.10;99.90;;;;;;5096211;28;19967;-67
2021/08/03 03:33:23;;;;;;;;;;;10.10;99.90;;;;;;5095842;28;19908;-67
2021/08/03 03:35:50;;;;;;;;;;;10.10;99.90;;;;;;5095082;28;19908;-66
2021/08/03 03:38:18;;;;;;;;;;;10.10;99.90;;;;;;5096064;28;19912;-68
2021/08/03 03:40:44;;;;;;;;;;;10.10;99.90;;;;;;5096065;28;19908;-68
2021/08/03 03:43:10;;;;;;;;;;;10.10;99.90;;;;;;5096280;28;19908;-66
2021/08/03 03:45:36;;;;;;;;;;;10.10;99.90;;;;;;5077306;28;19912;-69
2021/08/03 03:48:04;;;;;;;;;;;10.20;99.90;;;;;;5095301;28;19912;-66
2021/08/03 03:50:35;;;;;;;;;;;10.30;99.90;;;;;;5077312;28;19920;-68
2021/08/03 03:53:09;;;;;;;;;;;10.30;99.90;;;;;;5077095;28;19912;-68
2021/08/03 03:55:35;;;;;;;;;;;10.20;99.90;;;;;;5077544;28;19912;-68
2021/08/03 03:58:01;;;;;;;;;;;10.20;99.90;;;;;;5095653;28;20407;-68
2021/08/03 04:00:33;;;;;;;;;;;10.20;99.90;;;;;;5076955;28;19946;-68
2021/08/03 04:03:00;;;;;;;;;;;10.30;99.90;;;;;;5095295;28;19908;-68
2021/08/03 04:05:26;;;;;;;;;;;10.30;99.90;;;;;;5095257;28;19912;-68
2021/08/03 04:07:51;;;;;;;;;;;10.30;99.90;;;;;;5094913;28;19931;-68
2021/08/03 04:10:18;;;;;;;;;;;10.30;99.90;;;;;;5094591;28;19908;-66
2021/08/03 04:12:44;;;;;;;;;;;10.30;99.90;;;;;;5095142;28;19931;-66
2021/08/03 04:15:10;;;;;;;;;;;10.40;99.90;;;;;;5095023;28;20276;-68
2021/08/03 04:17:35;;;;;;;;;;;10.50;99.90;;;;;;5095027;28;19995;-66
2021/08/03 04:20:02;;;;;;;;;;;10.60;99.90;;;;;;5094642;28;19908;-68
2021/08/03 04:22:28;;;;;;;;;;;10.60;99.90;;;;;;5076416;28;20376;-68
2021/08/03 04:24:54;;;;;;;;;;;10.70;99.90;;;;;;5094839;28;19908;-68
2021/08/03 04:27:20;;;;;;;;;;;10.70;99.90;;;;;;5059726;28;20376;-69
2021/08/03 04:29:45;;;;;;;;;;;10.80;99.90;;;;;;5094510;28;20291;-66
2021/08/03 04:32:11;;;;;;;;;;;11.00;99.90;;;;;;5076667;28;20404;-68
2021/08/03 04:34:37;;;;;;;;;;;11.00;99.90;;;;;;5076735;28;20319;-67
2021/08/03 04:37:03;;;;;;;;;;;11.10;99.90;;;;;;5094708;28;19958;-67
2021/08/03 04:39:28;;;;;;;;;;;11.10;99.90;;;;;;5076238;28;20379;-67
2021/08/03 04:41:54;;;;;;;;;;;11.10;99.90;;;;;;5094336;28;19915;-68
2021/08/03 04:44:20;;;;;;;;;;;11.20;99.90;;;;;;5094258;28;19908;-67
2021/08/03 04:46:45;;;;;;;;;;;11.20;99.90;;;;;;5075917;28;19912;-68
2021/08/03 04:49:11;;;;;;;;;;;11.30;99.90;;;;;;5076232;28;19912;-68
2021/08/03 04:51:36;;;;;;;;;;;11.40;99.90;;;;;;5094133;28;19912;-68
2021/08/03 04:54:03;;;;;;;;;;;11.60;99.90;;;;;;5094523;28;19908;-68
2021/08/03 04:56:29;;;;;;;;;;;11.70;99.90;;;;;;5075948;28;19957;-68
2021/08/03 04:58:55;;;;;;;;;;;11.80;99.90;;;;;;5075957;28;19988;-68
2021/08/03 05:01:20;;;;;;;;;;;11.70;99.90;;;;;;5059738;28;19909;-68
2021/08/03 05:03:46;;;;;;;;;;;11.70;99.90;;;;;;5076424;28;19919;-68
2021/08/03 05:06:11;;;;;;;;;;;11.80;99.90;;;;;;5094315;28;20011;-68
2021/08/03 05:08:37;;;;;;;;;;;11.80;99.90;;;;;;5094203;28;19914;-68
2021/08/03 05:11:02;;;;;;;;;;;11.80;99.90;;;;;;5075677;28;19920;-68
2021/08/03 05:13:28;;;;;;;;;;;11.90;99.90;;;;;;5076173;28;19950;-68
2021/08/03 05:15:56;;;;;;;;;;;12.00;99.90;;;;;;5076445;28;19934;-68
2021/08/03 05:18:22;;;;;;;;;;;12.00;99.90;;;;;;5094351;28;19934;-67
2021/08/03 05:20:50;;;;;;;;;;;12.10;99.90;;;;;;5094460;28;20448;-68
2021/08/03 05:23:16;;;;;;;;;;;12.10;99.90;;;;;;5076229;28;19912;-68
2021/08/03 05:25:42;;;;;;;;;;;12.30;99.90;;;;;;5076152;28;19915;-68
2021/08/03 05:28:08;;;;;;;;;;;12.30;99.90;;;;;;5093900;28;19908;-68
2021/08/03 05:30:33;;;;;;;;;;;12.50;99.90;;;;;;5075625;28;20057;-68
2021/08/03 05:32:59;;;;;;;;;;;12.60;99.90;;;;;;5093861;28;19915;-68
2021/08/03 05:35:25;;;;;;;;;;;12.70;99.90;;;;;;5094173;28;19912;-68
2021/08/03 05:37:50;;;;;;;;;;;12.70;99.90;;;;;;5094098;28;20386;-68
2021/08/03 05:40:20;;;;;;;;;;;12.80;99.90;;;;;;5094550;28;20358;-68
2021/08/03 05:42:45;;;;;;;;;;;12.90;99.90;;;;;;5059633;28;19920;-69
2021/08/03 05:45:11;;;;;;;;;;;13.00;99.90;;;;;;5093689;28;20281;-68
2021/08/03 05:47:37;;;;;;;;;;;13.00;99.90;;;;;;5093574;28;19908;-68
2021/08/03 05:50:05;;;;;;;;;;;13.10;99.90;;;;;;5093916;28;20358;-68
2021/08/03 05:52:31;;;;;;;;;;;13.20;99.90;;;;;;5093561;28;19912;-68
2021/08/03 05:54:57;;;;;;;;;;;13.20;99.90;;;;;;5093565;28;19953;-67
2021/08/03 05:57:22;;;;;;;;;;;13.10;99.90;;;;;;5094076;28;19920;-67
2021/08/03 05:59:48;;;;;;;;;;;13.30;99.90;;;;;;5079605;28;20272;-68
2021/08/03 06:02:13;;;;;;;;;;;13.40;99.90;;;;;;5079438;28;19957;-68
2021/08/03 06:04:38;;;;;;;;;;;13.40;99.90;;;;;;5097534;28;19915;-68
2021/08/03 06:07:06;;;;;;;;;;;13.50;99.90;;;;;;5098053;28;19908;-68
2021/08/03 06:09:34;;;;;;;;;;;13.90;99.90;;;;;;5079792;28;19957;-68
2021/08/03 06:12:01;;;;;;;;;;;14.80;99.90;;;;;;5082735;28;19938;-69
2021/08/03 06:14:32;;;;;;;;;;;15.30;99.90;;;;;;5116723;28;20277;-68
2021/08/03 06:17:01;;;;;;;;;;;15.20;99.90;;;;;;5081892;28;20425;-68
2021/08/03 06:19:27;;;;;;;;;;;15.30;99.90;;;;;;5117106;28;19908;-68
2021/08/03 06:21:55;;;;;;;;;;;15.30;99.90;;;;;;5099083;28;20319;-68
2021/08/03 06:24:23;;;;;;;;;;;15.40;99.90;;;;;;5081967;28;19911;-68
2021/08/03 06:26:49;;;;;;;;;;;15.10;99.90;;;;;;5081754;28;19919;-68
2021/08/03 06:29:15;;;;;;;;;;;14.90;99.90;;;;;;5079838;28;20407;-68
2021/08/03 06:31:44;;;;;;;;;;;15.10;99.90;;;;;;5090797;28;20007;-68
2021/08/03 06:34:11;;;;;;;;;;;15.30;99.90;;;;;;5116966;28;19908;-68
2021/08/03 06:36:37;;;;;;;;;;;15.30;99.90;;;;;;5117040;28;20254;-68
2021/08/03 06:39:02;;;;;;;;;;;15.40;99.90;;;;;;5081791;28;19915;-68
2021/08/03 06:41:32;;;;;;;;;;;15.20;99.90;;;;;;5116999;28;19930;-68
2021/08/03 06:44:01;;;;;;;;;;;15.10;99.90;;;;;;5116725;28;20280;-68
2021/08/03 06:46:28;;;;;;;;;;;15.00;99.90;;;;;;5116577;28;19908;-68
2021/08/03 06:48:56;;;;;;;;;;;15.00;99.90;;;;;;5116672;28;19923;-68
2021/08/03 06:51:22;;;;;;;;;;;15.10;99.90;;;;;;5098404;28;20339;-68
2021/08/03 06:53:48;;;;;;;;;;;15.30;99.90;;;;;;5116527;28;19995;-69
2021/08/03 06:56:16;;;;;;;;;;;16.50;99.90;;;;;;5114174;28;19947;-69
2021/08/03 06:58:58;;;;;;;;;;;17.50;99.90;;;;;;5096573;28;19915;-69
2021/08/03 07:01:28;;;;;;;;;;;17.70;99.90;;;;;;5096546;28;20281;-69
2021/08/03 07:03:55;;;;;;;;;;;18.00;99.90;;;;;;5077292;28;19908;-69
2021/08/03 07:06:23;;;;;;;;;;;18.70;99.90;;;;;;5090847;28;20284;-69
2021/08/03 07:08:51;;;;;;;;;;;18.80;99.90;;;;;;5088217;28;19912;-69
2021/08/03 07:11:16;;;;;;;;;;;18.30;99.90;;;;;;5087301;28;19949;-69
2021/08/03 07:13:42;;;;;;;;;;;19.50;99.90;;;;;;5094880;28;19908;-69
2021/08/03 07:16:09;;;;;;;;;;;19.40;99.90;;;;;;5096258;28;19912;-69
2021/08/03 07:18:35;;;;;;;;;;;19.50;99.90;;;;;;5111627;28;20297;-69
2021/08/03 07:21:01;;;;;;;;;;;19.70;99.90;;;;;;5111953;28;19908;-69
2021/08/03 07:23:27;;;;;;;;;;;19.20;99.90;;;;;;5096087;28;19908;-70
2021/08/03 07:25:53;;;;;;;;;;;19.80;99.90;;;;;;5094585;28;19912;-70
2021/08/03 07:28:19;;;;;;;;;;;19.80;99.90;;;;;;5095280;28;20364;-69
2021/08/03 07:30:48;;;;;;;;;;;19.70;99.90;;;;;;5099705;28;19942;-68
2021/08/03 07:33:35;;;;;;;;;;;19.90;99.90;;;;;;5054454;28;20013;-69
2021/08/03 07:36:01;;;;;;;;;;;19.80;99.90;;;;;;5083893;28;19908;-70
2021/08/03 07:38:27;;;;;;;;;;;19.80;99.90;;;;;;5116207;28;20380;-69
2021/08/03 07:40:52;;;;;;;;;;;19.60;99.90;;;;;;5081492;28;19907;-69
2021/08/03 07:43:18;;;;;;;;;;;19.50;99.90;;;;;;5097976;28;19908;-68
2021/08/03 07:45:43;;;;;;;;;;;19.20;99.90;;;;;;5097830;28;19929;-69
2021/08/03 07:48:09;;;;;;;;;;;18.80;99.90;;;;;;5115651;28;20307;-68
2021/08/03 07:50:34;;;;;;;;;;;18.70;99.90;;;;;;5110695;28;19919;-69
2021/08/03 07:53:00;;;;;;;;;;;18.60;99.90;;;;;;5095892;28;19912;-69
2021/08/03 07:55:25;;;;;;;;;;;18.50;99.90;;;;;;5115512;28;19934;-69
2021/08/03 07:57:51;;;;;;;;;;;18.40;99.90;;;;;;5115489;28;20388;-68
2021/08/03 08:00:16;;;;;;;;;;;18.40;99.90;;;;;;5115356;28;19908;-69
2021/08/03 08:02:42;;;;;;;;;;;18.30;99.90;;;;;;5115416;28;19908;-69
2021/08/03 08:05:07;;;;;;;;;;;18.20;99.90;;;;;;5115301;28;20385;-69
2021/08/03 08:07:33;;;;;;;;;;;18.10;99.90;;;;;;5115891;28;19908;-69
2021/08/03 08:09:58;;;;;;;;;;;17.90;99.90;;;;;;5115836;28;19915;-69
2021/08/03 08:12:24;;;;;;;;;;;17.70;99.90;;;;;;5114954;28;19957;-69
2021/08/03 08:14:49;;;;;;;;;;;17.60;99.90;;;;;;5115460;28;19915;-68
2021/08/03 08:17:15;;;;;;;;;;;17.40;99.90;;;;;;5115385;28;20006;-69
2021/08/03 08:19:40;;;;;;;;;;;17.60;99.90;;;;;;5115181;28;19911;-69
2021/08/03 08:22:05;;;;;;;;;;;17.60;99.90;;;;;;5114928;28;19911;-69
2021/08/03 08:24:31;;;;;;;;;;;17.70;99.90;;;;;;5115284;28;19914;-69
2021/08/03 08:26:56;;;;;;;;;;;18.10;99.90;;;;;;5114933;28;19908;-69
2021/08/03 08:29:22;;;;;;;;;;;18.50;99.90;;;;;;5115196;28;19919;-69
2021/08/03 08:31:48;;;;;;;;;;;19.20;99.90;;;;;;5114804;28;19919;-69
2021/08/03 08:34:13;;;;;;;;;;;19.40;99.90;;;;;;5114848;28;19908;-69
2021/08/03 08:36:39;;;;;;;;;;;19.80;99.90;;;;;;5114779;28;19907;-69
2021/08/03 08:39:05;;;;;;;;;;;19.80;99.90;;;;;;5114720;28;20000;-69
2021/08/03 08:41:33;;;;;;;;;;;19.70;99.90;;;;;;5114745;28;19907;-69
2021/08/03 08:43:59;;;;;;;;;;;19.50;99.90;;;;;;5114651;28;19908;-69
2021/08/03 08:46:24;;;;;;;;;;;19.20;99.90;;;;;;5114921;28;19914;-69
2021/08/03 08:48:50;;;;;;;;;;;18.70;99.90;;;;;;5114865;28;20006;-69
2021/08/03 08:51:16;;;;;;;;;;;18.50;99.90;;;;;;5114584;28;19965;-69
2021/08/03 08:53:42;;;;;;;;;;;18.70;99.90;;;;;;5114973;28;20346;-69
2021/08/03 08:56:07;;;;;;;;;;;18.80;99.90;;;;;;5096592;28;20257;-69
2021/08/03 08:58:33;;;;;;;;;;;18.80;99.90;;;;;;5114749;28;19908;-69
2021/08/03 09:00:59;;;;;;;;;;;18.80;99.90;;;;;;5114686;28;20253;-69
2021/08/03 09:03:24;;;;;;;;;;;19.00;99.90;;;;;;5114416;28;19999;-69
2021/08/03 09:05:59;;;;;;;;;;;19.10;99.90;;;;;;5114610;28;19915;-69
2021/08/03 09:08:32;;;;;;;;;;;19.00;99.90;;;;;;5114674;28;20013;-69
2021/08/03 09:11:04;;;;;;;;;;;18.70;99.90;;;;;;5114234;28;19971;-69
2021/08/03 09:13:29;;;;;;;;;;;18.60;99.90;;;;;;5114318;28;19908;-69
2021/08/03 09:15:59;;;;;;;;;;;18.60;99.90;;;;;;5114217;28;19957;-69
2021/08/03 09:18:28;;;;;;;;;;;18.70;99.90;;;;;;5114292;28;19907;-69
2021/08/03 09:20:53;;;;;;;;;;;18.90;99.90;;;;;;5114190;28;19908;-71
2021/08/03 09:23:19;;;;;;;;;;;19.10;99.90;;;;;;5095960;28;20262;-72
2021/08/03 09:25:53;;;;;;;;;;;19.40;99.90;;;;;;5096126;28;19930;-72
2021/08/03 09:28:19;;;;;;;;;;;19.70;99.90;;;;;;5079632;28;19915;-72
2021/08/03 09:30:44;;;;;;;;;;;20.00;99.90;;;;;;5114638;28;20420;-72
2021/08/03 09:33:19;;;;;;;;;;;20.10;99.90;;;;;;5116644;28;20306;-72
2021/08/03 09:35:45;;;;;;;;;;;20.10;99.90;;;;;;5099961;28;19947;-72
2021/08/03 09:38:13;;;;;;;;;;;20.60;99.90;;;;;;5118220;28;19946;-72
2021/08/03 09:40:38;;;;;;;;;;;20.60;99.90;;;;;;5100265;28;19907;-72
2021/08/03 09:43:12;;;;;;;;;;;20.40;99.90;;;;;;5118409;28;20003;-72
2021/08/03 09:45:48;;;;;;;;;;;20.40;99.90;;;;;;5111948;28;19907;-72
2021/08/03 09:48:17;;;;;;;;;;;20.50;99.90;;;;;;5086024;28;20261;-72
2021/08/03 09:51:02;;;;;;;;;;;20.30;99.90;;;;;;5087001;28;19908;-72
2021/08/03 09:53:37;;;;;;;;;;;20.30;99.90;;;;;;5069987;28;19908;-72
2021/08/03 09:56:04;;;;;;;;;;;20.40;99.90;;;;;;5066808;28;19909;-72
2021/08/03 09:58:31;;;;;;;;;;;20.00;99.90;;;;;;5084914;28;19955;-72
2021/08/03 10:00:57;;;;;;;;;;;19.80;99.90;;;;;;5086211;28;19916;-72
2021/08/03 10:03:23;;;;;;;;;;;20.20;99.90;;;;;;5066356;28;20035;-72
2021/08/03 10:05:49;;;;;;;;;;;20.80;99.90;;;;;;5068029;28;20356;-72
2021/08/03 10:08:16;;;;;;;;;;;21.00;99.90;;;;;;5084693;28;19948;-72
2021/08/03 10:10:43;;;;;;;;;;;21.20;99.90;;;;;;5086123;28;19973;-72
2021/08/03 10:13:09;;;;;;;;;;;21.50;99.90;;;;;;5067892;28;20007;-72
2021/08/03 10:15:34;;;;;;;;;;;21.60;99.90;;;;;;5069187;28;19966;-72
2021/08/03 10:18:00;;;;;;;;;;;21.60;99.90;;;;;;5096928;28;20007;-72
2021/08/03 10:20:25;;;;;;;;;;;22.40;99.90;;;;;;5097025;28;19908;-72
2021/08/03 10:22:55;;;;;;;;;;;22.90;99.90;;;;;;5096994;28;19916;-72
2021/08/03 10:25:21;;;;;;;;;;;22.70;99.90;;;;;;5113021;28;19908;-72
2021/08/03 10:27:49;;;;;;;;;;;22.20;99.90;;;;;;5097221;28;19908;-72
2021/08/03 10:30:34;;;;;;;;;;;21.90;99.90;;;;;;5096878;28;19908;-72
2021/08/03 10:33:04;;;;;;;;;;;21.70;99.90;;;;;;5096817;28;19912;-72
2021/08/03 10:35:38;;;;;;;;;;;21.80;99.90;;;;;;5112585;28;19947;-72
2021/08/03 10:41:02;;;;;;;;;;;21.50;99.90;;;;;;5092289;27;19912;-71
2021/08/03 10:46:16;;;;;;;;;;;21.30;99.90;;;;;;5174685;27;19911;-73
2021/08/03 10:48:42;;;;;;;;;;;21.30;99.90;;;;;;5174069;27;19911;-73
2021/08/03 10:54:12;;;;;;;;;;;21.40;99.90;;;;;;5092221;27;20392;-71
2021/08/03 11:02:29;;;;;;;;;;;21.20;99.90;;;;;;5091911;27;19934;-71
2021/08/03 11:04:56;;;;;;;;;;;21.50;99.90;;;;;;5091418;28;20312;-72
2021/08/03 11:07:27;;;;;;;;;;;21.60;99.90;;;;;;5091539;28;19912;-72
2021/08/03 11:09:53;;;;;;;;;;;21.30;99.90;;;;;;5091582;28;19957;-72
2021/08/03 11:12:38;;;;;;;;;;;21.90;99.90;;;;;;5091292;28;19958;-72
2021/08/03 11:15:25;;;;;;;;;;;21.60;99.90;;;;;;5091226;28;19908;-72
2021/08/03 11:17:59;;;;;;;;;;;21.90;99.90;;;;;;5091714;28;19916;-72
2021/08/03 11:20:45;;;;;;;;;;;22.30;99.90;;;;;;5091367;28;19912;-72
2021/08/03 11:23:12;;;;;;;;;;;22.10;99.90;;;;;;5091215;28;19913;-72
2021/08/03 11:25:38;;;;;;;;;;;21.80;99.90;;;;;;5091313;28;20268;-72
2021/08/03 11:28:13;;;;;;;;;;;21.70;99.90;;;;;;5090958;28;19909;-72
2021/08/03 11:30:39;;;;;;;;;;;21.40;99.90;;;;;;5089668;28;19909;-72
2021/08/03 11:33:05;;;;;;;;;;;21.20;99.90;;;;;;5091187;28;20308;-72
2021/08/03 11:35:31;;;;;;;;;;;20.70;99.90;;;;;;5123977;28;19912;-71
2021/08/03 11:38:04;;;;;;;;;;;20.80;99.90;;;;;;5091069;28;19916;-72
2021/08/03 11:40:30;;;;;;;;;;;20.80;99.90;;;;;;5090913;28;19913;-72
2021/08/03 11:42:57;;;;;;;;;;;21.10;99.90;;;;;;5090935;28;19962;-71
2021/08/03 11:45:22;;;;;;;;;;;21.20;99.90;;;;;;5089832;28;20203;-71
2021/08/03 11:47:49;;;;;;;;;;;21.10;99.90;;;;;;5089224;28;19931;-71
2021/08/03 11:50:28;;;;;;;;;;;21.10;99.90;;;;;;5090474;28;20227;-71
2021/08/03 11:52:54;;;;;;;;;;;21.00;99.90;;;;;;5090706;28;19948;-71
2021/08/03 11:55:19;;;;;;;;;;;21.00;99.90;;;;;;5090723;28;19951;-71
2021/08/03 11:57:47;;;;;;;;;;;20.80;99.90;;;;;;5090660;28;19909;-72
2021/08/03 12:00:15;;;;;;;;;;;20.80;99.90;;;;;;5094740;28;19920;-72
2021/08/03 12:02:41;;;;;;;;;;;20.80;99.90;;;;;;5093010;28;20419;-71
2021/08/03 12:05:08;;;;;;;;;;;20.90;99.90;;;;;;5110907;28;20346;-71
2021/08/03 12:07:34;;;;;;;;;;;20.70;99.90;;;;;;5111072;28;19908;-72
2021/08/03 12:09:59;;;;;;;;;;;20.40;99.90;;;;;;5110916;28;19908;-71
2021/08/03 12:12:25;;;;;;;;;;;20.20;99.90;;;;;;5083780;28;19920;-71
2021/08/03 12:15:00;;;;;;;;;;;20.00;99.90;;;;;;5095769;28;19912;-71
2021/08/03 12:17:26;;;;;;;;;;;20.00;99.90;;;;;;5095342;28;19911;-72
2021/08/03 12:19:52;;;;;;;;;;;19.90;99.90;;;;;;5095340;28;20319;-71
2021/08/03 12:22:25;;;;;;;;;;;19.90;99.90;;;;;;5096663;28;20311;-71
2021/08/03 12:25:06;;;;;;;;;;;19.90;99.90;;;;;;5079272;28;19919;-71
2021/08/03 12:27:40;;;;;;;;;;;19.70;99.90;;;;;;5096901;28;20368;-71
2021/08/03 12:30:06;;;;;;;;;;;19.60;99.90;;;;;;5078438;28;20251;-71
2021/08/03 12:32:36;;;;;;;;;;;19.60;99.90;;;;;;5096509;28;19915;-71
2021/08/03 12:35:09;;;;;;;;;;;19.70;99.90;;;;;;5096493;28;19912;-71
2021/08/03 12:37:34;;;;;;;;;;;19.60;99.90;;;;;;5078270;28;19908;-71
2021/08/03 12:40:00;;;;;;;;;;;19.70;99.90;;;;;;5078185;28;19919;-71
2021/08/03 12:45:13;;;;;;;;;;;19.00;99.90;;;;;;5096522;28;20277;-71
2021/08/03 12:47:51;;;;;;;;;;;18.90;99.90;;;;;;5096502;28;19908;-71
2021/08/03 12:50:16;;;;;;;;;;;18.80;99.90;;;;;;5096486;28;19915;-71
2021/08/03 12:52:58;;;;;;;;;;;18.80;99.90;;;;;;5096354;28;19912;-71
2021/08/03 12:55:28;;;;;;;;;;;18.80;99.90;;;;;;5096342;28;19908;-71
2021/08/03 12:57:54;;;;;;;;;;;18.80;99.90;;;;;;5078434;28;19908;-71
2021/08/03 13:00:28;;;;;;;;;;;19.00;99.90;;;;;;5095945;28;19948;-71
2021/08/03 13:02:53;;;;;;;;;;;19.20;99.90;;;;;;5095899;28;19915;-71
2021/08/03 13:05:19;;;;;;;;;;;19.40;99.90;;;;;;5077820;28;19908;-71
2021/08/03 13:07:44;;;;;;;;;;;19.40;99.90;;;;;;5060839;28;20426;-71
2021/08/03 13:10:10;;;;;;;;;;;19.50;99.90;;;;;;5095672;28;20384;-71
2021/08/03 13:12:35;;;;;;;;;;;19.50;99.90;;;;;;5078048;28;20279;-71
2021/08/03 13:15:00;;;;;;;;;;;19.60;99.90;;;;;;5096102;28;19915;-71
2021/08/03 13:17:26;;;;;;;;;;;19.60;99.90;;;;;;5077865;28;19908;-71
2021/08/03 13:19:51;;;;;;;;;;;19.70;99.90;;;;;;5096134;28;19912;-71
2021/08/03 13:22:17;;;;;;;;;;;19.70;99.90;;;;;;5077806;28;20366;-71
2021/08/03 13:24:42;;;;;;;;;;;19.90;99.90;;;;;;5076955;28;19978;-71
2021/08/03 13:27:08;;;;;;;;;;;20.00;99.90;;;;;;5095730;28;19908;-71
2021/08/03 13:29:33;;;;;;;;;;;20.10;99.90;;;;;;5095590;28;19916;-71
2021/08/03 13:31:59;;;;;;;;;;;20.50;99.90;;;;;;5095483;28;19915;-71
2021/08/03 13:34:24;;;;;;;;;;;20.60;99.90;;;;;;5077012;28;19948;-71
2021/08/03 13:36:49;;;;;;;;;;;20.70;99.90;;;;;;5095168;28;19915;-71
2021/08/03 13:39:15;;;;;;;;;;;20.90;99.90;;;;;;5095619;28;19919;-71
2021/08/03 13:41:41;;;;;;;;;;;21.20;99.90;;;;;;5095598;28;19912;-71
2021/08/03 13:44:07;;;;;;;;;;;21.20;99.90;;;;;;5095465;28;19908;-72
2021/08/03 13:46:32;;;;;;;;;;;21.40;99.90;;;;;;5095177;28;20031;-71
2021/08/03 13:48:58;;;;;;;;;;;21.20;99.90;;;;;;5095159;28;20314;-71
2021/08/03 13:51:24;;;;;;;;;;;21.30;99.90;;;;;;5095186;28;20354;-71
2021/08/03 13:53:50;;;;;;;;;;;21.40;99.90;;;;;;5095064;28;20041;-71
2021/08/03 13:56:17;;;;;;;;;;;21.20;99.90;;;;;;5095025;28;19912;-71
2021/08/03 13:58:43;;;;;;;;;;;20.90;99.90;;;;;;5077416;28;19912;-71
2021/08/03 14:01:08;;;;;;;;;;;21.10;99.90;;;;;;5076332;28;20251;-72
2021/08/03 14:03:34;;;;;;;;;;;21.20;99.90;;;;;;5076545;28;19969;-72
2021/08/03 14:06:00;;;;;;;;;;;20.90;99.90;;;;;;5094610;28;19908;-72
2021/08/03 14:08:26;;;;;;;;;;;21.00;99.90;;;;;;5094463;28;19961;-72
2021/08/03 14:10:52;;;;;;;;;;;21.00;99.90;;;;;;5094499;28;19912;-71
2021/08/03 14:13:18;;;;;;;;;;;21.00;99.90;;;;;;5076378;28;19909;-71
2021/08/03 14:15:44;;;;;;;;;;;21.10;99.90;;;;;;5094728;28;19908;-71
2021/08/03 14:18:09;;;;;;;;;;;21.10;99.90;;;;;;5076778;28;19953;-73
2021/08/03 14:20:34;;;;;;;;;;;21.20;99.90;;;;;;5076581;28;19919;-72
2021/08/03 14:23:00;;;;;;;;;;;21.60;99.90;;;;;;5094612;28;19959;-72
2021/08/03 14:25:25;;;;;;;;;;;21.70;99.90;;;;;;5094417;28;19961;-72
2021/08/03 14:27:51;;;;;;;;;;;21.60;99.90;;;;;;5076823;28;19926;-72
2021/08/03 14:30:16;;;;;;;;;;;21.60;99.90;;;;;;5094250;28;19958;-72
2021/08/03 14:32:42;;;;;;;;;;;21.70;99.90;;;;;;5093912;28;20365;-71
2021/08/03 14:35:07;;;;;;;;;;;21.60;99.90;;;;;;5093847;28;20007;-71
2021/08/03 14:37:33;;;;;;;;;;;21.70;99.90;;;;;;5094072;28;19909;-71
2021/08/03 14:39:58;;;;;;;;;;;21.40;99.90;;;;;;5094003;28;19908;-72